sensor_id;sensor_type;location;lat;lon;timestamp;P1;durP1;ratioP1;P2;durP2;ratioP2
13568;SDS011;6856;51.460;7.158;2022-11-03T00:00:29;6.00;;;1.77;;
13568;SDS011;6856;51.460;7.158;2022-11-03T00:03:03;6.10;;;1.57;;
13568;SDS011;6856;51.460;7.158;2022-11-03T00:05:37;5.13;;;1.60;;
13568;SDS011;6856;51.460;7.158;2022-11-03T00:08:28;5.57;;;1.70;;
13568;SDS011;6856;51.460;7.158;2022-11-03T00:11:05;6.13;;;2.17;;
13568;SDS011;6856;51.460;7.158;2022-11-03T00:13:42;5.57;;;1.70;;
13568;SDS011;6856;51.460;7.158;2022-11-03T00:16:17;4.13;;;1.57;;
13568;SDS011;6856;51.460;7.158;2022-11-03T00:18:51;4.80;;;1.57;;
13568;SDS011;6856;51.460;7.158;2022-11-03T00:21:25;3.47;;;1.50;;
13568;SDS011;6856;51.460;7.158;2022-11-03T00:24:01;3.70;;;1.43;;
13568;SDS011;6856;51.460;7.158;2022-11-03T00:26:36;5.80;;;1.50;;
13568;SDS011;6856;51.460;7.158;2022-11-03T00:29:11;6.13;;;1.90;;
13568;SDS011;6856;51.460;7.158;2022-11-03T00:31:47;4.90;;;1.83;;
13568;SDS011;6856;51.460;7.158;2022-11-03T00:34:21;5.67;;;1.70;;
13568;SDS011;6856;51.460;7.158;2022-11-03T00:36:54;6.10;;;1.77;;
13568;SDS011;6856;51.460;7.158;2022-11-03T00:39:28;6.07;;;1.90;;
13568;SDS011;6856;51.460;7.158;2022-11-03T00:42:01;4.70;;;1.53;;
13568;SDS011;6856;51.460;7.158;2022-11-03T00:44:35;4.97;;;1.50;;
13568;SDS011;6856;51.460;7.158;2022-11-03T00:47:10;6.90;;;1.70;;
13568;SDS011;6856;51.460;7.158;2022-11-03T00:49:43;5.93;;;1.87;;
13568;SDS011;6856;51.460;7.158;2022-11-03T00:52:17;6.90;;;1.97;;
13568;SDS011;6856;51.460;7.158;2022-11-03T00:54:50;4.63;;;1.93;;
13568;SDS011;6856;51.460;7.158;2022-11-03T00:57:25;4.87;;;1.80;;
13568;SDS011;6856;51.460;7.158;2022-11-03T00:59:59;5.43;;;1.57;;
13568;SDS011;6856;51.460;7.158;2022-11-03T01:02:33;4.30;;;1.80;;
13568;SDS011;6856;51.460;7.158;2022-11-03T01:05:07;4.30;;;1.60;;
13568;SDS011;6856;51.460;7.158;2022-11-03T01:07:58;6.70;;;2.13;;
13568;SDS011;6856;51.460;7.158;2022-11-03T01:10:34;4.97;;;1.60;;
13568;SDS011;6856;51.460;7.158;2022-11-03T01:13:29;3.63;;;1.60;;
13568;SDS011;6856;51.460;7.158;2022-11-03T01:16:03;4.97;;;1.60;;
13568;SDS011;6856;51.460;7.158;2022-11-03T01:18:38;6.10;;;1.80;;
13568;SDS011;6856;51.460;7.158;2022-11-03T01:21:12;7.70;;;2.30;;
13568;SDS011;6856;51.460;7.158;2022-11-03T01:23:45;5.60;;;1.87;;
13568;SDS011;6856;51.460;7.158;2022-11-03T01:26:19;4.13;;;1.80;;
13568;SDS011;6856;51.460;7.158;2022-11-03T01:28:52;5.27;;;1.90;;
13568;SDS011;6856;51.460;7.158;2022-11-03T01:31:26;3.93;;;1.50;;
13568;SDS011;6856;51.460;7.158;2022-11-03T01:34:02;6.33;;;2.03;;
13568;SDS011;6856;51.460;7.158;2022-11-03T01:36:35;4.13;;;1.37;;
13568;SDS011;6856;51.460;7.158;2022-11-03T01:39:09;6.70;;;1.87;;
13568;SDS011;6856;51.460;7.158;2022-11-03T01:41:44;4.77;;;1.80;;
13568;SDS011;6856;51.460;7.158;2022-11-03T01:44:24;5.77;;;1.80;;
13568;SDS011;6856;51.460;7.158;2022-11-03T01:47:08;5.83;;;1.67;;
13568;SDS011;6856;51.460;7.158;2022-11-03T01:49:54;4.23;;;1.73;;
13568;SDS011;6856;51.460;7.158;2022-11-03T01:52:35;5.10;;;1.53;;
13568;SDS011;6856;51.460;7.158;2022-11-03T01:55:15;3.90;;;1.63;;
13568;SDS011;6856;51.460;7.158;2022-11-03T01:57:55;5.30;;;1.77;;
13568;SDS011;6856;51.460;7.158;2022-11-03T02:00:42;6.23;;;1.93;;
13568;SDS011;6856;51.460;7.158;2022-11-03T02:03:21;4.73;;;1.93;;
13568;SDS011;6856;51.460;7.158;2022-11-03T02:05:56;6.40;;;2.07;;
13568;SDS011;6856;51.460;7.158;2022-11-03T02:08:33;3.60;;;1.70;;
13568;SDS011;6856;51.460;7.158;2022-11-03T02:11:11;5.17;;;1.93;;
13568;SDS011;6856;51.460;7.158;2022-11-03T02:14:03;5.23;;;1.77;;
13568;SDS011;6856;51.460;7.158;2022-11-03T02:16:36;4.97;;;1.80;;
13568;SDS011;6856;51.460;7.158;2022-11-03T02:19:20;3.70;;;1.77;;
13568;SDS011;6856;51.460;7.158;2022-11-03T02:22:11;6.40;;;2.10;;
13568;SDS011;6856;51.460;7.158;2022-11-03T02:25:04;5.33;;;2.07;;
13568;SDS011;6856;51.460;7.158;2022-11-03T02:27:51;6.17;;;2.20;;
13568;SDS011;6856;51.460;7.158;2022-11-03T02:30:25;3.97;;;1.60;;
13568;SDS011;6856;51.460;7.158;2022-11-03T02:33:08;5.27;;;1.77;;
13568;SDS011;6856;51.460;7.158;2022-11-03T02:35:55;4.13;;;1.93;;
13568;SDS011;6856;51.460;7.158;2022-11-03T02:38:36;4.63;;;1.93;;
13568;SDS011;6856;51.460;7.158;2022-11-03T02:41:17;5.60;;;1.87;;
13568;SDS011;6856;51.460;7.158;2022-11-03T02:43:54;5.83;;;1.70;;
13568;SDS011;6856;51.460;7.158;2022-11-03T02:46:30;6.73;;;1.83;;
13568;SDS011;6856;51.460;7.158;2022-11-03T02:49:06;7.97;;;1.83;;
13568;SDS011;6856;51.460;7.158;2022-11-03T02:51:39;6.43;;;1.70;;
13568;SDS011;6856;51.460;7.158;2022-11-03T02:54:15;7.00;;;2.20;;
13568;SDS011;6856;51.460;7.158;2022-11-03T02:56:54;5.30;;;1.90;;
13568;SDS011;6856;51.460;7.158;2022-11-03T02:59:36;5.00;;;2.00;;
13568;SDS011;6856;51.460;7.158;2022-11-03T03:02:21;6.77;;;1.97;;
13568;SDS011;6856;51.460;7.158;2022-11-03T03:05:04;5.60;;;1.60;;
13568;SDS011;6856;51.460;7.158;2022-11-03T03:07:45;7.03;;;1.80;;
13568;SDS011;6856;51.460;7.158;2022-11-03T03:10:24;3.90;;;1.47;;
13568;SDS011;6856;51.460;7.158;2022-11-03T03:13:02;7.87;;;2.03;;
13568;SDS011;6856;51.460;7.158;2022-11-03T03:15:44;4.53;;;1.57;;
13568;SDS011;6856;51.460;7.158;2022-11-03T03:18:24;4.90;;;1.77;;
13568;SDS011;6856;51.460;7.158;2022-11-03T03:21:10;4.67;;;1.80;;
13568;SDS011;6856;51.460;7.158;2022-11-03T03:23:49;5.03;;;1.80;;
13568;SDS011;6856;51.460;7.158;2022-11-03T03:26:29;7.17;;;1.63;;
13568;SDS011;6856;51.460;7.158;2022-11-03T03:29:10;6.90;;;1.90;;
13568;SDS011;6856;51.460;7.158;2022-11-03T03:31:50;3.47;;;1.57;;
13568;SDS011;6856;51.460;7.158;2022-11-03T03:34:27;4.33;;;1.63;;
13568;SDS011;6856;51.460;7.158;2022-11-03T03:37:06;4.63;;;1.47;;
13568;SDS011;6856;51.460;7.158;2022-11-03T03:39:46;4.00;;;1.63;;
13568;SDS011;6856;51.460;7.158;2022-11-03T03:42:26;5.47;;;1.47;;
13568;SDS011;6856;51.460;7.158;2022-11-03T03:45:02;4.73;;;1.67;;
13568;SDS011;6856;51.460;7.158;2022-11-03T03:47:41;4.80;;;1.50;;
13568;SDS011;6856;51.460;7.158;2022-11-03T03:50:15;3.17;;;1.47;;
13568;SDS011;6856;51.460;7.158;2022-11-03T03:52:53;7.17;;;1.90;;
13568;SDS011;6856;51.460;7.158;2022-11-03T03:55:31;3.43;;;1.70;;
13568;SDS011;6856;51.460;7.158;2022-11-03T03:58:08;7.53;;;2.27;;
13568;SDS011;6856;51.460;7.158;2022-11-03T04:00:45;6.03;;;1.87;;
13568;SDS011;6856;51.460;7.158;2022-11-03T04:03:20;2.43;;;1.10;;
13568;SDS011;6856;51.460;7.158;2022-11-03T04:05:56;3.20;;;1.53;;
13568;SDS011;6856;51.460;7.158;2022-11-03T04:08:29;4.57;;;1.50;;
13568;SDS011;6856;51.460;7.158;2022-11-03T04:11:03;5.43;;;1.73;;
13568;SDS011;6856;51.460;7.158;2022-11-03T04:13:54;5.90;;;1.77;;
13568;SDS011;6856;51.460;7.158;2022-11-03T04:16:45;6.50;;;2.10;;
13568;SDS011;6856;51.460;7.158;2022-11-03T04:19:37;5.87;;;1.73;;
13568;SDS011;6856;51.460;7.158;2022-11-03T04:22:29;8.43;;;1.70;;
13568;SDS011;6856;51.460;7.158;2022-11-03T04:25:05;5.00;;;2.10;;
13568;SDS011;6856;51.460;7.158;2022-11-03T04:27:39;4.37;;;1.60;;
13568;SDS011;6856;51.460;7.158;2022-11-03T04:30:14;8.23;;;2.00;;
13568;SDS011;6856;51.460;7.158;2022-11-03T04:32:50;3.83;;;1.47;;
13568;SDS011;6856;51.460;7.158;2022-11-03T04:35:26;4.27;;;1.50;;
13568;SDS011;6856;51.460;7.158;2022-11-03T04:38:01;3.60;;;1.40;;
13568;SDS011;6856;51.460;7.158;2022-11-03T04:40:51;4.07;;;1.63;;
13568;SDS011;6856;51.460;7.158;2022-11-03T04:43:31;6.87;;;2.07;;
13568;SDS011;6856;51.460;7.158;2022-11-03T04:46:08;5.37;;;1.63;;
13568;SDS011;6856;51.460;7.158;2022-11-03T04:48:44;6.77;;;1.77;;
13568;SDS011;6856;51.460;7.158;2022-11-03T04:51:21;5.13;;;2.00;;
13568;SDS011;6856;51.460;7.158;2022-11-03T04:54:00;2.90;;;1.60;;
13568;SDS011;6856;51.460;7.158;2022-11-03T04:56:38;2.97;;;1.50;;
13568;SDS011;6856;51.460;7.158;2022-11-03T04:59:13;6.93;;;2.13;;
13568;SDS011;6856;51.460;7.158;2022-11-03T05:01:48;4.70;;;1.67;;
13568;SDS011;6856;51.460;7.158;2022-11-03T05:04:21;6.97;;;1.87;;
13568;SDS011;6856;51.460;7.158;2022-11-03T05:06:56;6.73;;;1.43;;
13568;SDS011;6856;51.460;7.158;2022-11-03T05:09:30;6.13;;;2.00;;
13568;SDS011;6856;51.460;7.158;2022-11-03T05:12:07;4.93;;;1.90;;
13568;SDS011;6856;51.460;7.158;2022-11-03T05:14:41;4.60;;;1.70;;
13568;SDS011;6856;51.460;7.158;2022-11-03T05:17:17;4.60;;;1.73;;
13568;SDS011;6856;51.460;7.158;2022-11-03T05:19:55;5.43;;;1.90;;
13568;SDS011;6856;51.460;7.158;2022-11-03T05:22:34;3.30;;;1.50;;
13568;SDS011;6856;51.460;7.158;2022-11-03T05:25:21;4.67;;;1.60;;
13568;SDS011;6856;51.460;7.158;2022-11-03T05:28:12;6.63;;;2.10;;
13568;SDS011;6856;51.460;7.158;2022-11-03T05:30:53;5.67;;;1.60;;
13568;SDS011;6856;51.460;7.158;2022-11-03T05:33:27;3.70;;;1.87;;
13568;SDS011;6856;51.460;7.158;2022-11-03T05:36:06;3.77;;;1.53;;
13568;SDS011;6856;51.460;7.158;2022-11-03T05:38:47;3.37;;;1.70;;
13568;SDS011;6856;51.460;7.158;2022-11-03T05:41:23;5.03;;;1.73;;
13568;SDS011;6856;51.460;7.158;2022-11-03T05:43:59;3.97;;;1.50;;
13568;SDS011;6856;51.460;7.158;2022-11-03T05:46:40;5.37;;;1.70;;
13568;SDS011;6856;51.460;7.158;2022-11-03T05:49:14;4.43;;;1.50;;
13568;SDS011;6856;51.460;7.158;2022-11-03T05:51:47;7.10;;;1.93;;
13568;SDS011;6856;51.460;7.158;2022-11-03T05:54:23;4.30;;;1.70;;
13568;SDS011;6856;51.460;7.158;2022-11-03T05:57:06;3.47;;;1.40;;
13568;SDS011;6856;51.460;7.158;2022-11-03T05:59:42;5.07;;;2.00;;
13568;SDS011;6856;51.460;7.158;2022-11-03T06:02:25;5.27;;;1.87;;
13568;SDS011;6856;51.460;7.158;2022-11-03T06:05:11;4.87;;;1.40;;
13568;SDS011;6856;51.460;7.158;2022-11-03T06:07:51;3.27;;;1.30;;
13568;SDS011;6856;51.460;7.158;2022-11-03T06:10:30;3.23;;;1.30;;
13568;SDS011;6856;51.460;7.158;2022-11-03T06:13:10;4.23;;;1.50;;
13568;SDS011;6856;51.460;7.158;2022-11-03T06:15:50;6.33;;;2.00;;
13568;SDS011;6856;51.460;7.158;2022-11-03T06:18:30;3.30;;;1.30;;
13568;SDS011;6856;51.460;7.158;2022-11-03T06:21:08;5.03;;;2.03;;
13568;SDS011;6856;51.460;7.158;2022-11-03T06:23:47;3.10;;;1.80;;
13568;SDS011;6856;51.460;7.158;2022-11-03T06:26:23;4.90;;;1.77;;
13568;SDS011;6856;51.460;7.158;2022-11-03T06:29:00;4.57;;;1.63;;
13568;SDS011;6856;51.460;7.158;2022-11-03T06:31:33;4.77;;;1.73;;
13568;SDS011;6856;51.460;7.158;2022-11-03T06:34:11;5.03;;;1.60;;
13568;SDS011;6856;51.460;7.158;2022-11-03T06:37:04;4.87;;;1.50;;
13568;SDS011;6856;51.460;7.158;2022-11-03T06:39:52;5.23;;;1.63;;
13568;SDS011;6856;51.460;7.158;2022-11-03T06:42:35;4.30;;;1.80;;
13568;SDS011;6856;51.460;7.158;2022-11-03T06:45:11;3.17;;;1.47;;
13568;SDS011;6856;51.460;7.158;2022-11-03T06:47:51;4.17;;;1.77;;
13568;SDS011;6856;51.460;7.158;2022-11-03T06:50:27;4.47;;;1.80;;
13568;SDS011;6856;51.460;7.158;2022-11-03T06:53:04;6.90;;;1.40;;
13568;SDS011;6856;51.460;7.158;2022-11-03T06:55:38;5.27;;;1.73;;
13568;SDS011;6856;51.460;7.158;2022-11-03T06:58:15;5.10;;;1.87;;
13568;SDS011;6856;51.460;7.158;2022-11-03T07:00:59;4.60;;;1.60;;
13568;SDS011;6856;51.460;7.158;2022-11-03T07:03:35;4.70;;;1.77;;
13568;SDS011;6856;51.460;7.158;2022-11-03T07:06:13;4.27;;;2.00;;
13568;SDS011;6856;51.460;7.158;2022-11-03T07:08:55;5.37;;;1.67;;
13568;SDS011;6856;51.460;7.158;2022-11-03T07:11:33;3.70;;;1.30;;
13568;SDS011;6856;51.460;7.158;2022-11-03T07:14:15;2.97;;;1.57;;
13568;SDS011;6856;51.460;7.158;2022-11-03T07:16:52;4.30;;;1.53;;
13568;SDS011;6856;51.460;7.158;2022-11-03T07:19:29;5.90;;;1.60;;
13568;SDS011;6856;51.460;7.158;2022-11-03T07:22:08;4.87;;;1.77;;
13568;SDS011;6856;51.460;7.158;2022-11-03T07:24:51;3.47;;;1.67;;
13568;SDS011;6856;51.460;7.158;2022-11-03T07:27:28;3.47;;;1.50;;
13568;SDS011;6856;51.460;7.158;2022-11-03T07:30:13;3.03;;;1.50;;
13568;SDS011;6856;51.460;7.158;2022-11-03T07:32:51;6.13;;;1.70;;
13568;SDS011;6856;51.460;7.158;2022-11-03T07:35:29;3.93;;;1.60;;
13568;SDS011;6856;51.460;7.158;2022-11-03T07:38:28;4.77;;;1.60;;
13568;SDS011;6856;51.460;7.158;2022-11-03T07:41:03;3.70;;;1.57;;
13568;SDS011;6856;51.460;7.158;2022-11-03T07:43:40;4.27;;;1.53;;
13568;SDS011;6856;51.460;7.158;2022-11-03T07:46:21;5.10;;;1.60;;
13568;SDS011;6856;51.460;7.158;2022-11-03T07:48:56;4.63;;;2.00;;
13568;SDS011;6856;51.460;7.158;2022-11-03T07:51:33;8.47;;;1.60;;
13568;SDS011;6856;51.460;7.158;2022-11-03T07:54:11;4.10;;;1.30;;
13568;SDS011;6856;51.460;7.158;2022-11-03T07:56:54;4.00;;;1.53;;
13568;SDS011;6856;51.460;7.158;2022-11-03T07:59:31;2.83;;;1.43;;
13568;SDS011;6856;51.460;7.158;2022-11-03T08:02:15;3.43;;;1.60;;
13568;SDS011;6856;51.460;7.158;2022-11-03T08:05:03;4.17;;;1.20;;
13568;SDS011;6856;51.460;7.158;2022-11-03T08:07:37;5.77;;;1.87;;
13568;SDS011;6856;51.460;7.158;2022-11-03T08:10:11;4.97;;;1.30;;
13568;SDS011;6856;51.460;7.158;2022-11-03T08:12:45;4.50;;;1.67;;
13568;SDS011;6856;51.460;7.158;2022-11-03T08:15:19;4.30;;;1.50;;
13568;SDS011;6856;51.460;7.158;2022-11-03T08:17:53;7.27;;;2.20;;
13568;SDS011;6856;51.460;7.158;2022-11-03T08:20:27;3.73;;;1.50;;
13568;SDS011;6856;51.460;7.158;2022-11-03T08:23:00;4.70;;;1.40;;
13568;SDS011;6856;51.460;7.158;2022-11-03T08:25:54;4.00;;;1.63;;
13568;SDS011;6856;51.460;7.158;2022-11-03T08:28:27;3.97;;;1.50;;
13568;SDS011;6856;51.460;7.158;2022-11-03T08:31:01;2.80;;;1.53;;
13568;SDS011;6856;51.460;7.158;2022-11-03T08:33:44;4.37;;;1.60;;
13568;SDS011;6856;51.460;7.158;2022-11-03T08:36:17;5.20;;;1.60;;
13568;SDS011;6856;51.460;7.158;2022-11-03T08:38:52;3.77;;;1.50;;
13568;SDS011;6856;51.460;7.158;2022-11-03T08:41:25;5.57;;;1.50;;
13568;SDS011;6856;51.460;7.158;2022-11-03T08:43:59;2.67;;;1.37;;
13568;SDS011;6856;51.460;7.158;2022-11-03T08:46:32;4.13;;;1.60;;
13568;SDS011;6856;51.460;7.158;2022-11-03T08:49:07;3.60;;;1.60;;
13568;SDS011;6856;51.460;7.158;2022-11-03T08:51:41;4.70;;;1.70;;
13568;SDS011;6856;51.460;7.158;2022-11-03T08:54:15;3.03;;;1.37;;
13568;SDS011;6856;51.460;7.158;2022-11-03T08:56:48;4.40;;;1.57;;
13568;SDS011;6856;51.460;7.158;2022-11-03T08:59:23;5.40;;;1.50;;
13568;SDS011;6856;51.460;7.158;2022-11-03T09:01:56;3.27;;;1.40;;
13568;SDS011;6856;51.460;7.158;2022-11-03T09:04:31;2.97;;;1.40;;
13568;SDS011;6856;51.460;7.158;2022-11-03T09:07:05;4.53;;;1.70;;
13568;SDS011;6856;51.460;7.158;2022-11-03T09:09:38;4.07;;;1.80;;
13568;SDS011;6856;51.460;7.158;2022-11-03T09:12:31;5.50;;;1.60;;
13568;SDS011;6856;51.460;7.158;2022-11-03T09:15:05;4.47;;;1.60;;
13568;SDS011;6856;51.460;7.158;2022-11-03T09:17:40;2.67;;;1.43;;
13568;SDS011;6856;51.460;7.158;2022-11-03T09:20:17;3.60;;;1.37;;
13568;SDS011;6856;51.460;7.158;2022-11-03T09:22:52;6.80;;;2.17;;
13568;SDS011;6856;51.460;7.158;2022-11-03T09:25:25;5.00;;;1.73;;
13568;SDS011;6856;51.460;7.158;2022-11-03T09:27:58;4.07;;;1.53;;
13568;SDS011;6856;51.460;7.158;2022-11-03T09:30:32;4.43;;;1.70;;
13568;SDS011;6856;51.460;7.158;2022-11-03T09:33:05;4.23;;;1.77;;
13568;SDS011;6856;51.460;7.158;2022-11-03T09:35:40;4.53;;;1.87;;
13568;SDS011;6856;51.460;7.158;2022-11-03T09:38:13;7.60;;;1.77;;
13568;SDS011;6856;51.460;7.158;2022-11-03T09:40:47;3.53;;;1.37;;
13568;SDS011;6856;51.460;7.158;2022-11-03T09:43:20;2.73;;;1.30;;
13568;SDS011;6856;51.460;7.158;2022-11-03T09:45:54;4.77;;;1.43;;
13568;SDS011;6856;51.460;7.158;2022-11-03T09:48:27;4.47;;;1.83;;
13568;SDS011;6856;51.460;7.158;2022-11-03T09:51:02;3.23;;;1.33;;
13568;SDS011;6856;51.460;7.158;2022-11-03T09:53:37;2.33;;;1.00;;
13568;SDS011;6856;51.460;7.158;2022-11-03T09:56:11;6.10;;;1.90;;
13568;SDS011;6856;51.460;7.158;2022-11-03T09:58:45;4.37;;;1.60;;
13568;SDS011;6856;51.460;7.158;2022-11-03T10:01:24;3.53;;;1.30;;
13568;SDS011;6856;51.460;7.158;2022-11-03T10:03:58;4.00;;;1.30;;
13568;SDS011;6856;51.460;7.158;2022-11-03T10:06:34;6.33;;;1.63;;
13568;SDS011;6856;51.460;7.158;2022-11-03T10:09:10;2.37;;;1.30;;
13568;SDS011;6856;51.460;7.158;2022-11-03T10:11:51;3.53;;;1.17;;
13568;SDS011;6856;51.460;7.158;2022-11-03T10:14:26;3.67;;;1.40;;
13568;SDS011;6856;51.460;7.158;2022-11-03T10:17:00;3.87;;;1.50;;
13568;SDS011;6856;51.460;7.158;2022-11-03T10:19:34;2.77;;;1.30;;
13568;SDS011;6856;51.460;7.158;2022-11-03T10:22:09;2.40;;;1.20;;
13568;SDS011;6856;51.460;7.158;2022-11-03T10:24:43;3.27;;;1.20;;
13568;SDS011;6856;51.460;7.158;2022-11-03T10:27:20;4.33;;;1.23;;
13568;SDS011;6856;51.460;7.158;2022-11-03T10:30:05;3.30;;;1.13;;
13568;SDS011;6856;51.460;7.158;2022-11-03T10:32:41;4.23;;;1.40;;
13568;SDS011;6856;51.460;7.158;2022-11-03T10:38:25;2.57;;;1.27;;
13568;SDS011;6856;51.460;7.158;2022-11-03T10:41:11;3.57;;;1.10;;
13568;SDS011;6856;51.460;7.158;2022-11-03T10:43:58;4.30;;;1.60;;
13568;SDS011;6856;51.460;7.158;2022-11-03T10:46:38;2.07;;;1.17;;
13568;SDS011;6856;51.460;7.158;2022-11-03T10:49:27;4.03;;;1.60;;
13568;SDS011;6856;51.460;7.158;2022-11-03T10:52:06;3.60;;;1.20;;
13568;SDS011;6856;51.460;7.158;2022-11-03T10:54:53;3.93;;;1.30;;
13568;SDS011;6856;51.460;7.158;2022-11-03T10:57:29;1.90;;;1.10;;
13568;SDS011;6856;51.460;7.158;2022-11-03T11:00:04;2.47;;;1.30;;
13568;SDS011;6856;51.460;7.158;2022-11-03T11:02:42;2.60;;;1.30;;
13568;SDS011;6856;51.460;7.158;2022-11-03T11:05:18;3.53;;;1.00;;
13568;SDS011;6856;51.460;7.158;2022-11-03T11:07:55;2.03;;;1.00;;
13568;SDS011;6856;51.460;7.158;2022-11-03T11:10:32;2.90;;;1.10;;
13568;SDS011;6856;51.460;7.158;2022-11-03T11:13:25;2.53;;;1.03;;
13568;SDS011;6856;51.460;7.158;2022-11-03T11:16:00;1.83;;;0.97;;
13568;SDS011;6856;51.460;7.158;2022-11-03T11:21:57;2.83;;;1.20;;
13568;SDS011;6856;51.460;7.158;2022-11-03T11:27:55;2.70;;;1.40;;
13568;SDS011;6856;51.460;7.158;2022-11-03T11:40:12;3.00;;;1.33;;
13568;SDS011;6856;51.460;7.158;2022-11-03T11:43:26;3.13;;;1.60;;
13568;SDS011;6856;51.460;7.158;2022-11-03T11:49:15;2.57;;;1.23;;
13568;SDS011;6856;51.460;7.158;2022-11-03T11:51:49;2.17;;;1.07;;
13568;SDS011;6856;51.460;7.158;2022-11-03T11:54:23;2.60;;;1.10;;
13568;SDS011;6856;51.460;7.158;2022-11-03T11:56:57;3.23;;;1.00;;
13568;SDS011;6856;51.460;7.158;2022-11-03T11:59:32;1.87;;;1.00;;
13568;SDS011;6856;51.460;7.158;2022-11-03T12:02:09;4.30;;;1.20;;
13568;SDS011;6856;51.460;7.158;2022-11-03T12:04:52;3.53;;;1.50;;
13568;SDS011;6856;51.460;7.158;2022-11-03T12:07:31;2.97;;;1.40;;
13568;SDS011;6856;51.460;7.158;2022-11-03T12:10:06;2.07;;;1.00;;
13568;SDS011;6856;51.460;7.158;2022-11-03T12:12:40;4.63;;;1.70;;
13568;SDS011;6856;51.460;7.158;2022-11-03T12:18:29;1.80;;;0.87;;
13568;SDS011;6856;51.460;7.158;2022-11-03T12:21:11;2.10;;;1.00;;
13568;SDS011;6856;51.460;7.158;2022-11-03T12:26:58;3.60;;;1.03;;
13568;SDS011;6856;51.460;7.158;2022-11-03T12:29:32;2.63;;;1.10;;
13568;SDS011;6856;51.460;7.158;2022-11-03T12:32:07;3.30;;;0.93;;
13568;SDS011;6856;51.460;7.158;2022-11-03T12:35:01;1.73;;;0.97;;
13568;SDS011;6856;51.460;7.158;2022-11-03T12:37:36;2.63;;;1.00;;
13568;SDS011;6856;51.460;7.158;2022-11-03T12:40:10;1.57;;;0.80;;
13568;SDS011;6856;51.460;7.158;2022-11-03T12:42:45;1.57;;;0.83;;
13568;SDS011;6856;51.460;7.158;2022-11-03T12:45:18;3.07;;;1.10;;
13568;SDS011;6856;51.460;7.158;2022-11-03T12:47:54;2.13;;;1.17;;
13568;SDS011;6856;51.460;7.158;2022-11-03T12:50:27;4.13;;;0.97;;
13568;SDS011;6856;51.460;7.158;2022-11-03T12:53:01;1.67;;;0.87;;
13568;SDS011;6856;51.460;7.158;2022-11-03T12:55:35;2.50;;;0.93;;
13568;SDS011;6856;51.460;7.158;2022-11-03T12:58:14;1.33;;;0.83;;
13568;SDS011;6856;51.460;7.158;2022-11-03T13:00:48;2.10;;;1.13;;
13568;SDS011;6856;51.460;7.158;2022-11-03T13:03:28;1.30;;;0.80;;
13568;SDS011;6856;51.460;7.158;2022-11-03T13:06:03;4.10;;;1.30;;
13568;SDS011;6856;51.460;7.158;2022-11-03T13:08:40;2.63;;;0.93;;
13568;SDS011;6856;51.460;7.158;2022-11-03T13:11:18;1.80;;;1.10;;
13568;SDS011;6856;51.460;7.158;2022-11-03T13:14:11;1.83;;;0.90;;
13568;SDS011;6856;51.460;7.158;2022-11-03T13:16:44;3.73;;;1.20;;
13568;SDS011;6856;51.460;7.158;2022-11-03T13:19:19;3.97;;;1.27;;
13568;SDS011;6856;51.460;7.158;2022-11-03T13:21:52;1.93;;;0.90;;
13568;SDS011;6856;51.460;7.158;2022-11-03T13:24:25;2.30;;;1.20;;
13568;SDS011;6856;51.460;7.158;2022-11-03T13:26:59;1.70;;;0.93;;
13568;SDS011;6856;51.460;7.158;2022-11-03T13:29:32;1.83;;;1.00;;
13568;SDS011;6856;51.460;7.158;2022-11-03T13:32:06;1.60;;;1.00;;
13568;SDS011;6856;51.460;7.158;2022-11-03T13:34:41;2.73;;;0.90;;
13568;SDS011;6856;51.460;7.158;2022-11-03T13:37:14;3.30;;;1.20;;
13568;SDS011;6856;51.460;7.158;2022-11-03T13:39:48;2.63;;;1.10;;
13568;SDS011;6856;51.460;7.158;2022-11-03T13:42:21;2.87;;;1.30;;
13568;SDS011;6856;51.460;7.158;2022-11-03T13:44:55;2.50;;;1.40;;
13568;SDS011;6856;51.460;7.158;2022-11-03T13:47:28;3.33;;;1.30;;
13568;SDS011;6856;51.460;7.158;2022-11-03T13:50:32;4.40;;;1.53;;
13568;SDS011;6856;51.460;7.158;2022-11-03T13:53:07;3.13;;;1.30;;
13568;SDS011;6856;51.460;7.158;2022-11-03T13:56:00;2.20;;;1.10;;
13568;SDS011;6856;51.460;7.158;2022-11-03T13:58:39;2.47;;;1.50;;
13568;SDS011;6856;51.460;7.158;2022-11-03T14:01:32;3.63;;;1.23;;
13568;SDS011;6856;51.460;7.158;2022-11-03T14:04:07;2.87;;;1.30;;
13568;SDS011;6856;51.460;7.158;2022-11-03T14:07:02;1.47;;;1.10;;
13568;SDS011;6856;51.460;7.158;2022-11-03T14:09:35;1.87;;;1.10;;
13568;SDS011;6856;51.460;7.158;2022-11-03T14:12:09;3.10;;;1.27;;
13568;SDS011;6856;51.460;7.158;2022-11-03T14:15:00;2.97;;;1.13;;
13568;SDS011;6856;51.460;7.158;2022-11-03T14:17:37;2.97;;;1.37;;
13568;SDS011;6856;51.460;7.158;2022-11-03T14:20:11;2.53;;;1.30;;
13568;SDS011;6856;51.460;7.158;2022-11-03T14:22:46;3.37;;;1.50;;
13568;SDS011;6856;51.460;7.158;2022-11-03T14:25:20;2.07;;;1.20;;
13568;SDS011;6856;51.460;7.158;2022-11-03T14:27:53;1.90;;;1.13;;
13568;SDS011;6856;51.460;7.158;2022-11-03T14:30:27;2.00;;;1.50;;
13568;SDS011;6856;51.460;7.158;2022-11-03T14:33:01;3.63;;;1.20;;
13568;SDS011;6856;51.460;7.158;2022-11-03T14:35:34;2.13;;;1.10;;
13568;SDS011;6856;51.460;7.158;2022-11-03T14:38:09;3.47;;;1.50;;
13568;SDS011;6856;51.460;7.158;2022-11-03T14:40:42;3.07;;;1.37;;
13568;SDS011;6856;51.460;7.158;2022-11-03T14:43:33;2.57;;;1.27;;
13568;SDS011;6856;51.460;7.158;2022-11-03T14:46:06;3.77;;;1.63;;
13568;SDS011;6856;51.460;7.158;2022-11-03T14:48:40;2.13;;;1.43;;
13568;SDS011;6856;51.460;7.158;2022-11-03T14:51:14;3.33;;;1.57;;
13568;SDS011;6856;51.460;7.158;2022-11-03T14:53:48;2.00;;;1.30;;
13568;SDS011;6856;51.460;7.158;2022-11-03T14:56:22;2.47;;;1.30;;
13568;SDS011;6856;51.460;7.158;2022-11-03T14:58:56;2.80;;;1.30;;
13568;SDS011;6856;51.460;7.158;2022-11-03T15:01:29;1.93;;;1.20;;
13568;SDS011;6856;51.460;7.158;2022-11-03T15:04:04;3.63;;;1.03;;
13568;SDS011;6856;51.460;7.158;2022-11-03T15:06:38;2.00;;;1.07;;
13568;SDS011;6856;51.460;7.158;2022-11-03T15:09:13;2.47;;;1.20;;
13568;SDS011;6856;51.460;7.158;2022-11-03T15:11:47;2.90;;;1.20;;
13568;SDS011;6856;51.460;7.158;2022-11-03T15:14:21;3.80;;;1.60;;
13568;SDS011;6856;51.460;7.158;2022-11-03T15:16:54;3.33;;;1.70;;
13568;SDS011;6856;51.460;7.158;2022-11-03T15:19:27;2.93;;;1.30;;
13568;SDS011;6856;51.460;7.158;2022-11-03T15:22:01;2.03;;;1.10;;
13568;SDS011;6856;51.460;7.158;2022-11-03T15:24:36;3.27;;;1.40;;
13568;SDS011;6856;51.460;7.158;2022-11-03T15:27:29;2.73;;;1.40;;
13568;SDS011;6856;51.460;7.158;2022-11-03T15:30:03;3.50;;;1.33;;
13568;SDS011;6856;51.460;7.158;2022-11-03T15:32:38;3.07;;;1.40;;
13568;SDS011;6856;51.460;7.158;2022-11-03T15:35:12;4.43;;;1.40;;
13568;SDS011;6856;51.460;7.158;2022-11-03T15:37:46;1.77;;;1.10;;
13568;SDS011;6856;51.460;7.158;2022-11-03T15:40:21;2.37;;;1.40;;
13568;SDS011;6856;51.460;7.158;2022-11-03T15:42:54;3.60;;;1.40;;
13568;SDS011;6856;51.460;7.158;2022-11-03T15:45:33;2.47;;;1.47;;
13568;SDS011;6856;51.460;7.158;2022-11-03T15:48:07;4.20;;;1.60;;
13568;SDS011;6856;51.460;7.158;2022-11-03T15:50:41;4.47;;;1.93;;
13568;SDS011;6856;51.460;7.158;2022-11-03T15:53:14;3.67;;;1.63;;
13568;SDS011;6856;51.460;7.158;2022-11-03T15:55:49;2.90;;;1.63;;
13568;SDS011;6856;51.460;7.158;2022-11-03T15:58:22;3.50;;;1.87;;
13568;SDS011;6856;51.460;7.158;2022-11-03T16:00:56;3.47;;;1.63;;
13568;SDS011;6856;51.460;7.158;2022-11-03T16:03:29;3.43;;;1.50;;
13568;SDS011;6856;51.460;7.158;2022-11-03T16:06:03;3.07;;;1.80;;
13568;SDS011;6856;51.460;7.158;2022-11-03T16:08:36;3.97;;;1.70;;
13568;SDS011;6856;51.460;7.158;2022-11-03T16:11:11;4.23;;;1.57;;
13568;SDS011;6856;51.460;7.158;2022-11-03T16:13:45;3.23;;;1.60;;
13568;SDS011;6856;51.460;7.158;2022-11-03T16:16:18;2.63;;;1.50;;
13568;SDS011;6856;51.460;7.158;2022-11-03T16:18:51;4.07;;;1.73;;
13568;SDS011;6856;51.460;7.158;2022-11-03T16:21:25;3.53;;;1.53;;
13568;SDS011;6856;51.460;7.158;2022-11-03T16:24:00;4.17;;;1.80;;
13568;SDS011;6856;51.460;7.158;2022-11-03T16:26:37;3.93;;;1.80;;
13568;SDS011;6856;51.460;7.158;2022-11-03T16:29:10;3.70;;;1.70;;
13568;SDS011;6856;51.460;7.158;2022-11-03T16:31:44;3.20;;;1.87;;